Terminal Aerodrome Forecast
Issued by NWS

Home | Current Version | Previous Version | Text Only | Print | Product List | Glossary On
Versions: 1 2 3 4 5 6 7 8 9 10 11 12 13 14 15 16 17 18 19 20 21 22 23 24 25 26 27 28
000
FTUS45 KGJT 020101 AAA
TAFTEX
TAF AMD
KTEX 020101Z 0201/0224 27007KT P6SM VCTS BKN080CB OVC120
      TEMPO 0201/0203 VRB10G20KT -TSRA BKN070CB
     FM020300 14003KT P6SM FEW110 SCT200
     FM021600 22005KT P6SM SCT120
     FM021900 25006KT P6SM VCTS SCT080CB BKN120=

USA.gov is the U.S. government's official web portal to all federal, state and local government web resources and services.